Time;durP1;ratioP1;P1;durP2;ratioP2;P2;SDS_P1;SDS_P2;PMS_P1;PMS_P2;Temp;Humidity;BMP_temperature;BMP_pressure;BME280_temperature;BME280_humidity;BME280_pressure;Samples;Min_cycle;Max_cycle;Signal;HPM_P1;HPM_P2
2021/04/07 00:02:21;;;;;;;2.67;1.90;;;;;;;;;;4887890;29;20242;-80
2021/04/07 00:04:58;;;;;;;2.80;2.10;;;;;;;;;;4893422;28;20229;-80
2021/04/07 00:07:25;;;;;;;3.57;2.33;;;;;;;;;;5004967;28;20235;-79
2021/04/07 00:09:53;;;;;;;3.37;2.20;;;;;;;;;;4954974;28;20734;-79
2021/04/07 00:12:22;;;;;;;3.47;2.63;;;;;;;;;;4914556;28;20233;-79
2021/04/07 00:14:49;;;;;;;4.80;2.50;;;;;;;;;;4904431;28;22168;-79
2021/04/07 00:17:17;;;;;;;3.97;2.50;;;;;;;;;;4890591;28;20233;-79
2021/04/07 00:19:44;;;;;;;3.47;2.50;;;;;;;;;;4897787;28;20240;-80
2021/04/07 00:22:12;;;;;;;2.13;1.93;;;;;;;;;;5008647;28;20217;-79
2021/04/07 00:24:40;;;;;;;3.13;2.70;;;;;;;;;;5008968;28;20229;-79
2021/04/07 00:27:10;;;;;;;3.70;2.40;;;;;;;;;;4988323;28;20228;-80
2021/04/07 00:29:41;;;;;;;4.30;2.70;;;;;;;;;;4997857;28;20240;-78
2021/04/07 00:32:09;;;;;;;5.70;2.90;;;;;;;;;;5007544;28;20240;-79
2021/04/07 00:34:36;;;;;;;5.53;2.90;;;;;;;;;;5007022;28;20243;-79
2021/04/07 00:37:05;;;;;;;3.93;2.50;;;;;;;;;;5008959;28;20356;-78
2021/04/07 00:39:33;;;;;;;5.00;2.87;;;;;;;;;;4980463;28;20788;-78
2021/04/07 00:42:02;;;;;;;4.20;3.23;;;;;;;;;;5010548;28;20629;-79
2021/04/07 00:44:30;;;;;;;3.07;2.70;;;;;;;;;;4992193;28;20604;-79
2021/04/07 00:46:59;;;;;;;4.53;3.43;;;;;;;;;;4984016;28;20239;-78
2021/04/07 00:49:27;;;;;;;4.23;3.27;;;;;;;;;;5008443;28;20236;-79
2021/04/07 00:51:55;;;;;;;5.03;3.70;;;;;;;;;;5006255;28;20247;-79
2021/04/07 00:54:23;;;;;;;6.50;4.17;;;;;;;;;;4997830;28;23068;-79
2021/04/07 00:56:51;;;;;;;6.40;4.00;;;;;;;;;;5009507;28;20225;-78
2021/04/07 00:59:21;;;;;;;5.90;3.50;;;;;;;;;;4983936;28;20236;-79
2021/04/07 01:01:50;;;;;;;4.13;3.27;;;;;;;;;;4910508;29;20236;-80
2021/04/07 01:04:21;;;;;;;5.10;3.93;;;;;;;;;;4910581;29;20232;-80
2021/04/07 01:06:49;;;;;;;5.53;3.60;;;;;;;;;;4890123;28;20315;-79
2021/04/07 01:09:16;;;;;;;4.00;3.17;;;;;;;;;;4893034;28;20232;-78
2021/04/07 01:11:44;;;;;;;3.33;3.03;;;;;;;;;;4907453;28;20232;-79
2021/04/07 01:14:12;;;;;;;5.87;3.60;;;;;;;;;;4903859;28;20236;-78
2021/04/07 01:16:40;;;;;;;4.73;3.70;;;;;;;;;;4907264;28;20227;-81
2021/04/07 01:19:08;;;;;;;3.77;2.93;;;;;;;;;;4927763;28;20232;-80
2021/04/07 01:21:37;;;;;;;4.10;2.90;;;;;;;;;;4939644;28;20222;-78
2021/04/07 01:24:08;;;;;;;3.90;2.93;;;;;;;;;;4874288;28;20240;-80
2021/04/07 01:26:36;;;;;;;3.03;2.50;;;;;;;;;;4900140;28;20235;-80
2021/04/07 01:29:04;;;;;;;3.00;2.70;;;;;;;;;;4892002;28;20239;-79
2021/04/07 01:31:32;;;;;;;3.30;3.00;;;;;;;;;;4890347;29;20236;-79
2021/04/07 01:33:59;;;;;;;3.27;3.03;;;;;;;;;;4905212;28;20231;-80
2021/04/07 01:36:27;;;;;;;3.33;2.80;;;;;;;;;;4894592;28;20228;-79
2021/04/07 01:38:54;;;;;;;3.80;2.97;;;;;;;;;;4887555;28;20221;-79
2021/04/07 01:41:23;;;;;;;4.33;2.60;;;;;;;;;;4905547;29;20227;-78
2021/04/07 01:43:51;;;;;;;3.27;3.03;;;;;;;;;;4914853;28;20228;-79
2021/04/07 01:46:19;;;;;;;3.93;3.00;;;;;;;;;;4915585;28;20242;-78
2021/04/07 01:48:46;;;;;;;3.27;2.83;;;;;;;;;;4937818;28;20588;-79
2021/04/07 01:51:15;;;;;;;2.80;2.60;;;;;;;;;;4972596;28;20586;-79
2021/04/07 01:53:43;;;;;;;3.53;2.80;;;;;;;;;;4978319;28;20235;-79
2021/04/07 01:56:11;;;;;;;2.97;2.67;;;;;;;;;;4982995;28;20228;-79
2021/04/07 01:58:39;;;;;;;3.20;2.40;;;;;;;;;;5001831;28;20656;-79
2021/04/07 02:01:07;;;;;;;3.60;3.30;;;;;;;;;;4992095;28;20236;-78
2021/04/07 02:03:35;;;;;;;3.57;3.00;;;;;;;;;;5005788;28;20225;-79
2021/04/07 02:06:03;;;;;;;3.27;2.97;;;;;;;;;;5001997;28;20233;-79
2021/04/07 02:08:30;;;;;;;3.53;3.23;;;;;;;;;;5001817;28;20233;-81
2021/04/07 02:10:58;;;;;;;3.60;3.10;;;;;;;;;;4998633;28;20224;-80
2021/04/07 02:13:25;;;;;;;5.43;3.20;;;;;;;;;;4904147;28;20239;-79
2021/04/07 02:15:54;;;;;;;4.47;3.60;;;;;;;;;;4909250;28;20242;-79
2021/04/07 02:18:21;;;;;;;3.00;2.70;;;;;;;;;;4957624;28;20241;-79
2021/04/07 02:20:49;;;;;;;3.57;2.83;;;;;;;;;;4942449;28;20236;-78
2021/04/07 02:23:16;;;;;;;3.33;2.97;;;;;;;;;;4886468;28;20495;-78
2021/04/07 02:25:44;;;;;;;3.90;3.00;;;;;;;;;;4887390;28;20588;-79
2021/04/07 02:28:11;;;;;;;4.17;3.23;;;;;;;;;;4905861;28;20231;-78
2021/04/07 02:30:39;;;;;;;3.53;3.23;;;;;;;;;;4905793;28;20236;-80
2021/04/07 02:33:09;;;;;;;3.30;3.00;;;;;;;;;;4901561;28;20238;-79
2021/04/07 02:35:36;;;;;;;3.90;3.20;;;;;;;;;;4897128;28;20229;-79
2021/04/07 02:38:07;;;;;;;3.47;3.17;;;;;;;;;;4886674;28;22213;-79
2021/04/07 02:40:35;;;;;;;4.60;3.30;;;;;;;;;;4887829;28;20449;-80
2021/04/07 02:43:03;;;;;;;4.57;3.13;;;;;;;;;;4893048;28;20233;-79
2021/04/07 02:45:31;;;;;;;3.93;3.20;;;;;;;;;;4890904;29;20232;-79
2021/04/07 02:47:59;;;;;;;4.30;3.57;;;;;;;;;;4926386;28;20251;-79
2021/04/07 02:50:28;;;;;;;3.20;2.90;;;;;;;;;;4929234;28;20702;-80
2021/04/07 02:52:56;;;;;;;3.17;2.97;;;;;;;;;;4906392;28;20439;-79
2021/04/07 02:55:23;;;;;;;4.63;3.00;;;;;;;;;;4908992;28;20246;-78
2021/04/07 02:57:51;;;;;;;4.67;3.43;;;;;;;;;;4908284;29;20228;-79
2021/04/07 03:00:19;;;;;;;4.67;3.17;;;;;;;;;;4907118;28;20242;-78
2021/04/07 03:02:47;;;;;;;4.30;3.60;;;;;;;;;;4903454;28;20235;-78
2021/04/07 03:05:15;;;;;;;3.67;3.37;;;;;;;;;;4907130;28;20234;-79
2021/04/07 03:07:43;;;;;;;4.10;3.27;;;;;;;;;;4908440;28;20251;-77
2021/04/07 03:10:12;;;;;;;3.87;3.43;;;;;;;;;;4932176;28;20239;-79
2021/04/07 03:12:40;;;;;;;4.20;3.60;;;;;;;;;;4911195;28;20232;-79
2021/04/07 03:15:09;;;;;;;5.37;3.20;;;;;;;;;;4896636;28;20250;-78
2021/04/07 03:17:37;;;;;;;3.63;3.17;;;;;;;;;;4902989;29;20243;-79
2021/04/07 03:20:07;;;;;;;3.90;3.20;;;;;;;;;;4903813;28;20689;-79
2021/04/07 03:22:35;;;;;;;4.33;3.80;;;;;;;;;;4889170;28;20731;-79
2021/04/07 03:25:06;;;;;;;4.47;3.83;;;;;;;;;;4890538;28;20243;-78
2021/04/07 03:27:34;;;;;;;4.83;3.90;;;;;;;;;;4912237;28;20239;-80
2021/04/07 03:30:02;;;;;;;5.60;3.63;;;;;;;;;;4899429;29;20243;-79
2021/04/07 03:32:30;;;;;;;4.90;3.60;;;;;;;;;;4887052;28;20239;-79
2021/04/07 03:34:57;;;;;;;5.13;3.20;;;;;;;;;;4889885;28;20232;-80
2021/04/07 03:37:25;;;;;;;7.43;3.50;;;;;;;;;;4901625;28;20243;-79
2021/04/07 03:39:53;;;;;;;3.90;3.60;;;;;;;;;;4906162;29;20232;-78
2021/04/07 03:42:21;;;;;;;4.00;3.60;;;;;;;;;;4883157;29;20243;-78
2021/04/07 03:44:49;;;;;;;3.67;3.23;;;;;;;;;;4904220;28;20247;-78
2021/04/07 03:47:16;;;;;;;4.57;3.50;;;;;;;;;;4891046;28;20235;-79
2021/04/07 03:49:44;;;;;;;4.93;3.67;;;;;;;;;;4887309;28;20240;-79
2021/04/07 03:52:12;;;;;;;5.13;3.80;;;;;;;;;;4890543;28;20604;-79
2021/04/07 03:54:40;;;;;;;4.20;3.80;;;;;;;;;;4903396;28;20259;-80
2021/04/07 03:57:07;;;;;;;5.17;4.40;;;;;;;;;;4900185;28;20242;-79
2021/04/07 03:59:36;;;;;;;4.90;4.33;;;;;;;;;;4906623;29;20235;-78
2021/04/07 04:02:04;;;;;;;5.30;4.50;;;;;;;;;;4913560;28;20505;-78
2021/04/07 04:04:31;;;;;;;5.17;4.30;;;;;;;;;;4892615;28;20255;-79
2021/04/07 04:06:59;;;;;;;4.50;3.80;;;;;;;;;;4916470;28;20228;-80
2021/04/07 04:09:27;;;;;;;7.50;4.50;;;;;;;;;;4904248;28;20934;-79
2021/04/07 04:11:55;;;;;;;6.20;4.00;;;;;;;;;;4908325;28;20239;-79
2021/04/07 04:14:22;;;;;;;4.40;4.00;;;;;;;;;;4911453;28;20232;-78
2021/04/07 04:16:51;;;;;;;5.10;4.60;;;;;;;;;;4903269;28;20232;-80
2021/04/07 04:19:18;;;;;;;5.47;4.57;;;;;;;;;;4912487;28;20243;-79
2021/04/07 04:21:46;;;;;;;6.27;4.80;;;;;;;;;;4897765;28;20235;-80
2021/04/07 04:24:14;;;;;;;5.73;5.03;;;;;;;;;;4911805;28;20246;-81
2021/04/07 04:26:41;;;;;;;4.50;4.10;;;;;;;;;;4927358;28;20367;-79
2021/04/07 04:29:09;;;;;;;6.80;4.90;;;;;;;;;;4923542;28;20475;-78
2021/04/07 04:31:36;;;;;;;6.10;5.50;;;;;;;;;;4908943;28;20275;-78
2021/04/07 04:34:05;;;;;;;5.17;4.67;;;;;;;;;;4888082;28;20239;-79
2021/04/07 04:36:32;;;;;;;4.87;4.13;;;;;;;;;;4907438;28;20228;-79
2021/04/07 04:39:00;;;;;;;4.67;4.17;;;;;;;;;;4905256;28;20731;-78
2021/04/07 04:41:28;;;;;;;4.40;3.60;;;;;;;;;;4908785;29;20228;-79
2021/04/07 04:43:55;;;;;;;4.83;3.63;;;;;;;;;;4921623;28;20247;-79
2021/04/07 04:46:23;;;;;;;4.00;3.60;;;;;;;;;;4889173;28;20225;-78
2021/04/07 04:48:50;;;;;;;3.53;3.23;;;;;;;;;;4887832;28;20238;-78
2021/04/07 04:51:19;;;;;;;4.00;3.60;;;;;;;;;;4878820;28;20238;-79
2021/04/07 04:53:46;;;;;;;5.47;4.10;;;;;;;;;;4885581;28;20231;-79
2021/04/07 04:56:14;;;;;;;5.77;4.00;;;;;;;;;;4908302;28;20418;-79
2021/04/07 04:58:41;;;;;;;4.97;4.47;;;;;;;;;;4893146;29;20239;-79
2021/04/07 05:01:09;;;;;;;8.07;4.57;;;;;;;;;;4913218;28;20254;-79
2021/04/07 05:03:37;;;;;;;5.43;4.60;;;;;;;;;;4907789;28;20235;-79
2021/04/07 05:06:07;;;;;;;6.10;4.60;;;;;;;;;;4896797;28;20238;-78
2021/04/07 05:08:36;;;;;;;5.77;4.27;;;;;;;;;;4906146;28;20246;-79
2021/04/07 05:11:04;;;;;;;6.40;4.70;;;;;;;;;;4891404;28;21052;-80
2021/04/07 05:13:31;;;;;;;6.23;4.63;;;;;;;;;;4896054;28;20250;-81
2021/04/07 05:15:59;;;;;;;7.17;4.77;;;;;;;;;;4902880;29;20239;-78
2021/04/07 05:18:27;;;;;;;5.07;4.57;;;;;;;;;;4890314;28;20553;-79
2021/04/07 05:20:55;;;;;;;5.80;4.43;;;;;;;;;;4907879;28;20249;-80
2021/04/07 05:23:22;;;;;;;6.17;4.20;;;;;;;;;;4892330;28;20227;-79
2021/04/07 05:25:51;;;;;;;5.07;4.30;;;;;;;;;;4914554;28;20740;-80
2021/04/07 05:28:19;;;;;;;6.03;4.37;;;;;;;;;;4912335;28;20239;-79
2021/04/07 05:31:00;;;;;;;6.27;4.80;;;;;;;;;;4907989;28;20741;-79
2021/04/07 05:33:29;;;;;;;5.73;4.27;;;;;;;;;;4889588;28;20231;-78
2021/04/07 05:35:58;;;;;;;4.87;4.37;;;;;;;;;;4903402;28;20223;-79
2021/04/07 05:38:26;;;;;;;4.47;4.07;;;;;;;;;;4909251;29;20235;-79
2021/04/07 05:40:56;;;;;;;5.43;4.50;;;;;;;;;;4908173;28;20715;-79
2021/04/07 05:43:25;;;;;;;6.20;4.37;;;;;;;;;;4911320;29;20231;-79
2021/04/07 05:45:53;;;;;;;5.70;4.10;;;;;;;;;;4964671;28;20225;-78
2021/04/07 05:48:21;;;;;;;7.50;4.20;;;;;;;;;;4964910;28;20228;-79
2021/04/07 05:50:50;;;;;;;5.30;4.40;;;;;;;;;;4910218;28;20227;-79
2021/04/07 05:53:18;;;;;;;6.33;4.20;;;;;;;;;;4913923;28;20234;-79
2021/04/07 05:55:47;;;;;;;7.70;3.83;;;;;;;;;;4927899;28;20243;-79
2021/04/07 05:58:16;;;;;;;4.60;4.10;;;;;;;;;;4904579;28;20250;-79
2021/04/07 06:00:44;;;;;;;6.47;3.97;;;;;;;;;;4904349;28;20608;-80
2021/04/07 06:03:12;;;;;;;6.33;3.90;;;;;;;;;;4896837;28;20243;-78
2021/04/07 06:05:41;;;;;;;7.43;3.60;;;;;;;;;;4911200;29;20238;-79
2021/04/07 06:08:11;;;;;;;3.97;3.50;;;;;;;;;;4912733;28;20230;-80
2021/04/07 06:10:40;;;;;;;4.50;3.70;;;;;;;;;;4896884;29;20621;-79
2021/04/07 06:13:08;;;;;;;3.80;3.13;;;;;;;;;;4906755;28;20240;-79
2021/04/07 06:15:38;;;;;;;4.53;3.50;;;;;;;;;;4913067;28;20239;-79
2021/04/07 06:18:07;;;;;;;6.27;3.50;;;;;;;;;;4898515;29;20312;-80
2021/04/07 06:20:36;;;;;;;9.60;3.40;;;;;;;;;;4909916;28;20236;-79
2021/04/07 06:23:05;;;;;;;4.80;2.97;;;;;;;;;;4890935;28;20296;-79
2021/04/07 06:25:34;;;;;;;3.57;2.83;;;;;;;;;;4910959;28;20583;-79
2021/04/07 06:28:04;;;;;;;4.47;2.87;;;;;;;;;;4910402;28;20220;-78
2021/04/07 06:30:42;;;;;;;3.93;3.03;;;;;;;;;;4921599;28;20247;-79
2021/04/07 06:33:17;;;;;;;6.10;3.07;;;;;;;;;;4902857;28;20233;-79
2021/04/07 06:35:46;;;;;;;4.63;2.43;;;;;;;;;;4908021;29;20231;-79
2021/04/07 06:38:15;;;;;;;5.07;3.10;;;;;;;;;;4914274;28;20242;-79
2021/04/07 06:40:43;;;;;;;4.03;2.80;;;;;;;;;;4886309;29;20241;-79
2021/04/07 06:43:10;;;;;;;3.37;2.93;;;;;;;;;;4910030;29;20231;-79
2021/04/07 06:45:39;;;;;;;3.63;2.80;;;;;;;;;;4910782;29;20228;-80
2021/04/07 06:48:08;;;;;;;4.87;3.10;;;;;;;;;;4887645;28;20228;-79
2021/04/07 06:50:37;;;;;;;4.43;3.27;;;;;;;;;;4895769;28;20672;-81
2021/04/07 06:53:08;;;;;;;5.73;3.43;;;;;;;;;;4893353;28;20228;-79
2021/04/07 06:55:39;;;;;;;3.80;2.90;;;;;;;;;;4886442;29;20229;-80
2021/04/07 06:58:08;;;;;;;4.10;2.63;;;;;;;;;;4880410;29;20229;-79
2021/04/07 07:00:38;;;;;;;4.47;2.90;;;;;;;;;;4910697;28;20236;-80
2021/04/07 07:03:11;;;;;;;2.87;2.57;;;;;;;;;;4919659;28;20228;-78
2021/04/07 07:05:42;;;;;;;3.10;2.80;;;;;;;;;;4916096;28;20235;-81
2021/04/07 07:08:11;;;;;;;3.50;2.90;;;;;;;;;;4897613;28;20232;-80
2021/04/07 07:10:41;;;;;;;6.17;2.90;;;;;;;;;;4916137;28;20232;-79
2021/04/07 07:13:10;;;;;;;4.67;3.30;;;;;;;;;;4917922;28;20232;-81
2021/04/07 07:15:38;;;;;;;4.67;3.17;;;;;;;;;;4900677;28;20232;-82
2021/04/07 07:18:06;;;;;;;5.63;3.03;;;;;;;;;;4903660;28;20239;-80
2021/04/07 07:20:35;;;;;;;4.10;3.07;;;;;;;;;;4899264;28;20568;-79
2021/04/07 07:23:04;;;;;;;3.17;2.87;;;;;;;;;;4903808;28;20221;-79
2021/04/07 07:25:32;;;;;;;3.50;3.00;;;;;;;;;;4907468;28;20232;-83
2021/04/07 07:28:20;;;;;;;3.90;2.80;;;;;;;;;;4885613;28;20232;-81
2021/04/07 07:30:48;;;;;;;5.27;3.13;;;;;;;;;;4936801;28;20526;-80
2021/04/07 07:33:17;;;;;;;3.93;3.10;;;;;;;;;;4886937;28;21211;-80
2021/04/07 07:35:46;;;;;;;5.17;3.27;;;;;;;;;;4990659;28;20240;-79
2021/04/07 07:38:24;;;;;;;5.53;3.00;;;;;;;;;;5007418;28;20236;-80
2021/04/07 07:40:58;;;;;;;3.20;2.90;;;;;;;;;;4988160;28;20229;-79
2021/04/07 07:43:26;;;;;;;5.20;3.00;;;;;;;;;;4978699;28;20251;-79
2021/04/07 07:45:54;;;;;;;4.60;2.97;;;;;;;;;;5006915;28;20239;-80
2021/04/07 07:48:22;;;;;;;3.73;3.10;;;;;;;;;;5005297;28;20228;-80
2021/04/07 07:50:51;;;;;;;5.73;2.97;;;;;;;;;;5006136;28;20220;-79
2021/04/07 07:53:20;;;;;;;3.80;2.80;;;;;;;;;;4998529;28;20232;-80
2021/04/07 07:55:53;;;;;;;3.90;2.70;;;;;;;;;;4999824;28;20217;-79
2021/04/07 07:58:25;;;;;;;11.50;7.40;;;;;;;;;;4970999;28;20247;-79
2021/04/07 08:01:04;;;;;;;4.77;2.83;;;;;;;;;;4889519;29;20233;-82
2021/04/07 08:03:32;;;;;;;3.20;2.70;;;;;;;;;;4921717;28;20224;-79
2021/04/07 08:06:01;;;;;;;2.50;2.30;;;;;;;;;;4909287;28;20236;-79
2021/04/07 08:08:46;;;;;;;3.23;2.60;;;;;;;;;;4905729;28;20735;-81
2021/04/07 08:11:15;;;;;;;5.03;2.60;;;;;;;;;;4906315;28;20237;-80
2021/04/07 08:13:45;;;;;;;3.77;2.83;;;;;;;;;;4904913;28;20236;-79
2021/04/07 08:16:14;;;;;;;3.97;3.00;;;;;;;;;;4907619;28;20240;-79
2021/04/07 08:18:42;;;;;;;3.07;2.80;;;;;;;;;;4910235;28;20263;-79
2021/04/07 08:21:12;;;;;;;4.77;2.37;;;;;;;;;;4903122;28;20745;-80
2021/04/07 08:23:55;;;;;;;2.33;2.13;;;;;;;;;;4905051;29;20237;-79
2021/04/07 08:26:27;;;;;;;2.43;2.10;;;;;;;;;;4907230;28;20254;-81
2021/04/07 08:28:55;;;;;;;2.57;1.70;;;;;;;;;;4895514;28;20235;-80
2021/04/07 08:31:26;;;;;;;3.27;2.17;;;;;;;;;;4910213;28;20235;-83
2021/04/07 08:33:56;;;;;;;2.07;1.87;;;;;;;;;;4891493;28;20235;-80
2021/04/07 08:36:27;;;;;;;2.43;1.80;;;;;;;;;;4913123;28;20238;-79
2021/04/07 08:39:04;;;;;;;1.97;1.77;;;;;;;;;;4908336;29;20244;-79
2021/04/07 08:41:34;;;;;;;2.53;1.80;;;;;;;;;;4889594;28;20237;-80
2021/04/07 08:44:02;;;;;;;3.23;2.27;;;;;;;;;;4906299;29;20594;-81
2021/04/07 08:46:40;;;;;;;2.80;2.00;;;;;;;;;;4911696;28;20245;-82
2021/04/07 08:49:08;;;;;;;2.80;2.33;;;;;;;;;;4912511;29;20238;-83
2021/04/07 08:51:37;;;;;;;3.00;2.30;;;;;;;;;;4913032;29;20253;-81
2021/04/07 08:54:05;;;;;;;4.03;2.30;;;;;;;;;;4900106;29;20228;-81
2021/04/07 08:56:38;;;;;;;3.10;1.90;;;;;;;;;;4910998;28;20242;-83
2021/04/07 08:59:07;;;;;;;4.87;2.83;;;;;;;;;;4915375;28;20252;-80
2021/04/07 09:01:36;;;;;;;3.27;2.50;;;;;;;;;;4928882;28;20722;-79
2021/04/07 09:04:08;;;;;;;3.30;2.30;;;;;;;;;;4914719;28;20600;-79
2021/04/07 09:06:39;;;;;;;4.03;2.53;;;;;;;;;;4905783;28;20244;-80
2021/04/07 09:09:23;;;;;;;3.37;2.47;;;;;;;;;;4905549;29;20244;-82
2021/04/07 09:11:52;;;;;;;4.60;2.70;;;;;;;;;;4915256;29;20645;-81
2021/04/07 09:14:21;;;;;;;5.27;3.50;;;;;;;;;;4910308;29;20516;-80
2021/04/07 09:16:49;;;;;;;3.03;2.60;;;;;;;;;;4891207;28;20632;-82
2021/04/07 09:19:19;;;;;;;2.87;2.00;;;;;;;;;;4881238;28;20251;-84
2021/04/07 09:21:54;;;;;;;2.27;2.03;;;;;;;;;;4912376;28;20241;-84
2021/04/07 09:24:26;;;;;;;3.00;1.93;;;;;;;;;;4895524;29;20814;-82
2021/04/07 09:26:58;;;;;;;2.30;1.83;;;;;;;;;;4892834;29;20250;-81
2021/04/07 09:29:26;;;;;;;3.73;2.03;;;;;;;;;;4910514;28;20234;-82
2021/04/07 09:31:55;;;;;;;2.20;1.93;;;;;;;;;;4888368;28;20239;-80
2021/04/07 09:34:24;;;;;;;2.27;1.97;;;;;;;;;;4911527;28;20223;-79
2021/04/07 09:36:53;;;;;;;4.57;3.23;;;;;;;;;;4905872;29;20242;-80
2021/04/07 09:39:23;;;;;;;2.53;1.87;;;;;;;;;;4897647;28;20235;-80
2021/04/07 09:41:52;;;;;;;2.90;1.87;;;;;;;;;;4875653;28;20231;-81
2021/04/07 09:44:22;;;;;;;4.40;2.07;;;;;;;;;;4909494;29;20242;-80
2021/04/07 09:46:50;;;;;;;2.20;2.00;;;;;;;;;;4902818;28;20251;-82
2021/04/07 09:49:18;;;;;;;2.60;1.90;;;;;;;;;;4911566;28;20254;-79
2021/04/07 09:51:48;;;;;;;2.83;1.70;;;;;;;;;;4909114;28;20238;-81
2021/04/07 09:54:19;;;;;;;1.77;1.60;;;;;;;;;;4953179;28;20237;-80
2021/04/07 09:56:58;;;;;;;3.17;1.87;;;;;;;;;;4954088;28;20243;-81
2021/04/07 09:59:37;;;;;;;5.47;1.90;;;;;;;;;;4903471;28;20599;-81
2021/04/07 10:02:07;;;;;;;2.93;1.63;;;;;;;;;;4902338;29;20247;-80
2021/04/07 10:04:36;;;;;;;3.63;2.27;;;;;;;;;;4905265;28;20235;-80
2021/04/07 10:07:12;;;;;;;3.63;2.00;;;;;;;;;;4901714;28;20238;-81
2021/04/07 10:09:41;;;;;;;2.67;2.23;;;;;;;;;;4909093;29;20248;-82
2021/04/07 10:12:10;;;;;;;1.77;1.60;;;;;;;;;;4912197;28;20238;-82
2021/04/07 10:14:39;;;;;;;1.70;1.60;;;;;;;;;;4883457;28;20733;-80
2021/04/07 10:17:13;;;;;;;3.73;1.60;;;;;;;;;;4884426;29;20247;-81
2021/04/07 10:19:42;;;;;;;2.27;1.70;;;;;;;;;;4906989;28;20238;-80
2021/04/07 10:22:16;;;;;;;3.33;1.80;;;;;;;;;;4907603;29;20601;-79
2021/04/07 10:24:44;;;;;;;2.50;2.10;;;;;;;;;;4915849;28;20594;-84
2021/04/07 10:27:18;;;;;;;2.63;1.37;;;;;;;;;;4891747;29;20623;-81
2021/04/07 10:29:46;;;;;;;2.70;1.63;;;;;;;;;;4908818;28;20254;-80
2021/04/07 10:32:15;;;;;;;2.67;1.60;;;;;;;;;;4908774;28;20746;-87
2021/04/07 10:34:45;;;;;;;2.53;1.50;;;;;;;;;;4908196;28;20235;-81
2021/04/07 10:37:13;;;;;;;1.40;1.30;;;;;;;;;;4906500;29;20239;-83
2021/04/07 10:39:42;;;;;;;1.20;1.10;;;;;;;;;;4911908;28;20251;-80
2021/04/07 10:42:22;;;;;;;1.60;1.20;;;;;;;;;;4964712;28;20216;-80
2021/04/07 10:45:01;;;;;;;2.80;1.33;;;;;;;;;;4927955;28;20261;-82
2021/04/07 10:47:34;;;;;;;2.13;1.40;;;;;;;;;;4911633;29;20239;-84
2021/04/07 10:50:03;;;;;;;3.70;1.60;;;;;;;;;;4912147;29;20234;-82
2021/04/07 10:52:33;;;;;;;1.37;1.27;;;;;;;;;;4905300;28;20236;-85
2021/04/07 10:55:02;;;;;;;2.43;1.20;;;;;;;;;;4943294;28;20712;-81
2021/04/07 10:57:31;;;;;;;3.73;1.50;;;;;;;;;;4910011;28;20246;-81
2021/04/07 10:59:58;;;;;;;2.53;1.70;;;;;;;;;;4921515;29;20768;-80
2021/04/07 11:02:27;;;;;;;1.57;1.37;;;;;;;;;;4933024;28;20220;-81
2021/04/07 11:04:55;;;;;;;1.57;1.40;;;;;;;;;;4915765;28;20228;-81
2021/04/07 11:07:22;;;;;;;1.43;1.30;;;;;;;;;;4933267;28;20229;-81
2021/04/07 11:09:50;;;;;;;2.90;1.60;;;;;;;;;;5003240;28;20604;-80
2021/04/07 11:12:21;;;;;;;2.13;1.40;;;;;;;;;;4942067;28;20227;-82
2021/04/07 11:14:50;;;;;;;2.30;1.60;;;;;;;;;;4934984;28;20237;-83
2021/04/07 11:17:19;;;;;;;2.70;1.40;;;;;;;;;;4907074;29;20246;-84
2021/04/07 11:19:47;;;;;;;2.03;1.60;;;;;;;;;;4926496;28;20240;-81
2021/04/07 11:22:21;;;;;;;3.30;1.80;;;;;;;;;;5018826;28;21138;-80
2021/04/07 11:24:48;;;;;;;2.50;1.83;;;;;;;;;;4998801;28;20774;-80
2021/04/07 11:27:16;;;;;;;2.23;1.73;;;;;;;;;;4986700;28;20583;-81
2021/04/07 11:29:44;;;;;;;1.77;1.60;;;;;;;;;;5001879;28;20233;-80
2021/04/07 11:32:14;;;;;;;2.50;1.50;;;;;;;;;;4996457;28;20228;-80
2021/04/07 11:35:08;;;;;;;1.73;1.50;;;;;;;;;;5013208;28;20214;-81
2021/04/07 11:37:41;;;;;;;4.23;1.63;;;;;;;;;;4998691;28;20236;-84
2021/04/07 11:40:48;;;;;;;3.87;2.00;;;;;;;;;;4999005;28;20229;-80
2021/04/07 11:43:18;;;;;;;2.50;1.43;;;;;;;;;;4909602;29;20231;-81
2021/04/07 11:45:46;;;;;;;2.67;1.93;;;;;;;;;;4907258;29;20224;-79
2021/04/07 11:48:34;;;;;;;3.13;1.30;;;;;;;;;;4902716;29;20602;-80
2021/04/07 11:51:03;;;;;;;4.03;1.40;;;;;;;;;;4905932;29;20228;-83
2021/04/07 11:53:30;;;;;;;1.80;1.50;;;;;;;;;;4906219;28;20244;-85
2021/04/07 11:55:58;;;;;;;3.70;1.83;;;;;;;;;;4908125;28;20233;-81
2021/04/07 11:58:26;;;;;;;1.63;1.50;;;;;;;;;;4910960;29;20238;-80
2021/04/07 12:00:53;;;;;;;2.33;1.57;;;;;;;;;;4913735;29;20224;-81
2021/04/07 12:03:21;;;;;;;2.20;1.63;;;;;;;;;;4889192;28;20232;-80
2021/04/07 12:05:49;;;;;;;1.70;1.50;;;;;;;;;;4894370;28;20237;-81
2021/04/07 12:08:17;;;;;;;1.40;1.30;;;;;;;;;;4877332;28;20228;-83
2021/04/07 12:10:45;;;;;;;1.50;1.40;;;;;;;;;;4910739;28;20247;-80
2021/04/07 12:13:13;;;;;;;2.40;1.50;;;;;;;;;;4916246;28;20236;-82
2021/04/07 12:15:40;;;;;;;2.53;1.87;;;;;;;;;;4886941;29;20236;-81
2021/04/07 12:18:08;;;;;;;2.33;1.57;;;;;;;;;;4889121;29;20752;-80
2021/04/07 12:20:36;;;;;;;1.70;1.40;;;;;;;;;;4893175;28;20677;-80
2021/04/07 12:23:07;;;;;;;1.83;1.40;;;;;;;;;;4998231;28;20233;-81
2021/04/07 12:25:35;;;;;;;2.63;1.57;;;;;;;;;;5006651;28;20225;-80
2021/04/07 12:28:04;;;;;;;1.33;1.23;;;;;;;;;;4982234;28;20576;-80
2021/04/07 12:30:46;;;;;;;1.97;1.50;;;;;;;;;;5002067;28;20240;-80
2021/04/07 12:33:16;;;;;;;2.43;1.60;;;;;;;;;;5003077;28;20245;-80
2021/04/07 12:35:44;;;;;;;4.33;1.40;;;;;;;;;;4983996;28;20379;-80
2021/04/07 12:38:12;;;;;;;3.20;1.60;;;;;;;;;;5003882;28;20247;-80
2021/04/07 12:40:41;;;;;;;2.93;1.60;;;;;;;;;;4996522;28;20822;-80
2021/04/07 12:43:09;;;;;;;3.00;1.33;;;;;;;;;;4897851;28;20519;-81
2021/04/07 12:45:39;;;;;;;1.67;1.50;;;;;;;;;;4910936;28;20279;-80
2021/04/07 12:48:08;;;;;;;1.70;1.20;;;;;;;;;;4914843;28;20242;-79
2021/04/07 12:50:37;;;;;;;3.30;1.20;;;;;;;;;;4909217;28;20256;-80
2021/04/07 12:53:05;;;;;;;1.57;1.13;;;;;;;;;;4899340;28;20962;-83
2021/04/07 12:55:32;;;;;;;2.57;1.70;;;;;;;;;;5000301;28;20612;-81
2021/04/07 12:58:01;;;;;;;2.30;1.90;;;;;;;;;;5003592;28;20236;-83
2021/04/07 13:00:29;;;;;;;6.30;3.77;;;;;;;;;;5020332;28;20230;-80
2021/04/07 13:02:57;;;;;;;3.67;1.50;;;;;;;;;;5012295;28;20697;-81
2021/04/07 13:05:25;;;;;;;2.40;1.47;;;;;;;;;;4989463;28;20234;-79
2021/04/07 13:07:53;;;;;;;2.10;1.30;;;;;;;;;;5017183;28;20239;-81
2021/04/07 13:10:24;;;;;;;3.23;1.60;;;;;;;;;;5007928;28;20239;-81
2021/04/07 13:12:52;;;;;;;2.30;1.90;;;;;;;;;;4992846;28;20588;-81
2021/04/07 13:15:20;;;;;;;2.90;1.90;;;;;;;;;;4987268;28;20223;-80
2021/04/07 13:17:49;;;;;;;1.27;1.13;;;;;;;;;;5000300;28;20240;-81
2021/04/07 13:20:19;;;;;;;2.90;1.37;;;;;;;;;;4991135;28;20232;-80
2021/04/07 13:22:47;;;;;;;1.63;1.10;;;;;;;;;;5006210;28;23197;-80
2021/04/07 13:25:15;;;;;;;2.63;1.40;;;;;;;;;;4987315;28;20231;-80
2021/04/07 13:27:43;;;;;;;2.23;1.20;;;;;;;;;;5009885;28;20227;-80
2021/04/07 13:30:13;;;;;;;2.73;1.57;;;;;;;;;;4894579;29;20235;-81
2021/04/07 13:32:46;;;;;;;3.17;1.30;;;;;;;;;;4909941;29;20249;-81
2021/04/07 13:35:19;;;;;;;2.20;1.40;;;;;;;;;;4908989;29;20237;-84
2021/04/07 13:37:51;;;;;;;3.03;1.30;;;;;;;;;;4932018;28;20241;-85
2021/04/07 13:40:26;;;;;;;2.40;1.23;;;;;;;;;;4930445;28;20239;-84
2021/04/07 13:42:55;;;;;;;1.70;1.20;;;;;;;;;;4926735;28;20237;-82
2021/04/07 13:45:24;;;;;;;2.40;1.47;;;;;;;;;;4902686;28;20242;-81
2021/04/07 13:47:55;;;;;;;6.33;1.37;;;;;;;;;;4914406;29;20233;-79
2021/04/07 13:50:23;;;;;;;1.80;1.33;;;;;;;;;;4910790;28;20694;-79
2021/04/07 13:52:53;;;;;;;1.83;1.20;;;;;;;;;;4910105;28;20232;-77
2021/04/07 13:55:23;;;;;;;2.60;1.33;;;;;;;;;;4907393;28;20236;-80
2021/04/07 13:57:51;;;;;;;1.97;1.20;;;;;;;;;;4885724;29;20237;-81
2021/04/07 14:00:20;;;;;;;1.37;1.10;;;;;;;;;;4882999;28;20242;-84
2021/04/07 14:02:47;;;;;;;2.33;1.30;;;;;;;;;;4941624;28;20746;-81
2021/04/07 14:05:31;;;;;;;2.13;1.27;;;;;;;;;;4901622;28;21031;-82
2021/04/07 14:08:00;;;;;;;1.93;0.90;;;;;;;;;;4959760;28;20231;-83
2021/04/07 14:10:35;;;;;;;1.20;0.97;;;;;;;;;;5008036;28;20834;-81
2021/04/07 14:13:06;;;;;;;2.20;1.53;;;;;;;;;;4990705;28;20246;-82
2021/04/07 14:15:33;;;;;;;3.83;1.10;;;;;;;;;;5001900;28;20229;-82
2021/04/07 14:18:01;;;;;;;1.13;1.03;;;;;;;;;;4997665;28;20617;-80
2021/04/07 14:20:29;;;;;;;3.33;1.17;;;;;;;;;;4990636;28;20237;-80
2021/04/07 14:22:57;;;;;;;2.00;1.10;;;;;;;;;;5001124;28;20228;-80
2021/04/07 14:25:27;;;;;;;3.60;1.47;;;;;;;;;;4984195;28;20230;-81
2021/04/07 14:27:58;;;;;;;1.60;1.20;;;;;;;;;;5004985;28;20597;-80
2021/04/07 14:30:26;;;;;;;1.43;1.10;;;;;;;;;;5006384;28;20240;-82
2021/04/07 14:32:54;;;;;;;3.23;1.40;;;;;;;;;;4991180;28;20225;-80
2021/04/07 14:35:22;;;;;;;1.00;0.90;;;;;;;;;;4999279;28;20240;-82
2021/04/07 14:38:02;;;;;;;2.60;1.10;;;;;;;;;;4972967;28;20619;-83
2021/04/07 14:40:30;;;;;;;3.67;1.17;;;;;;;;;;4997561;28;20234;-80
2021/04/07 14:42:58;;;;;;;4.17;1.20;;;;;;;;;;4991708;28;20233;-80
2021/04/07 14:45:26;;;;;;;3.00;1.23;;;;;;;;;;4994413;28;20231;-84
2021/04/07 14:47:54;;;;;;;3.03;1.60;;;;;;;;;;5009979;28;20240;-81
2021/04/07 14:50:25;;;;;;;2.60;1.30;;;;;;;;;;5003586;28;20232;-79
2021/04/07 14:52:54;;;;;;;1.73;1.13;;;;;;;;;;5009737;28;20226;-81
2021/04/07 14:55:22;;;;;;;1.43;1.03;;;;;;;;;;5001898;28;20229;-81
2021/04/07 14:57:50;;;;;;;3.30;1.20;;;;;;;;;;4986619;28;20765;-84